Zprávy METAR z letišť v České republice

LKPR - Praha Ruzyně, Česká republika
Aktualizováno: 23.02.2018 12:30
 
Teplota vzduchu: -2°C
Chlad větru: -8°C
Vítr: VSV 20 km/h
Rosný bod: -9°C
Vlhkost vzduchu: 59%
Tlak vzduchu: 1020 hPa
Oblačnost: skoro jasno
Viditelnost: 10 km
Detaily oblačnosti: skoro jasno 914 m
2018/02/23 11:30 LKPR 231130Z 06011KT 9999 FEW030 M02/M09 Q1020 NOSIG
LKTB - Brno Tuřany, Česká republika
Aktualizováno: 23.02.2018 12:30
 
Teplota vzduchu: -1°C
Chlad větru: -7°C
Vítr: VSV 22 km/h
Rosný bod: -6°C
Vlhkost vzduchu: 69%
Tlak vzduchu: 1019 hPa
Oblačnost: skoro zataženo
Viditelnost: 10 km
Detaily oblačnosti: skoro zataženo 732 m
2018/02/23 11:30 LKTB 231130Z 07012KT 9999 BKN024 M01/M06 Q1019 NOSIG
 
LKKV - Karlovy Vary, Česká republika
Aktualizováno: 23.02.2018 12:30
 
Teplota vzduchu: -4°C
Chlad větru: -11°C
Vítr: V 20 km/h
Rosný bod: -10°C
Vlhkost vzduchu: 63%
Tlak vzduchu: 1018 hPa
Oblačnost: skoro jasno
Viditelnost: 10 km
Detaily oblačnosti: skoro jasno 762 m
2018/02/23 11:30 LKKV 231130Z 09011KT 040V120 9999 FEW025 M04/M10 Q1018
LKMT - Ostrava Mošnov, Česká republika
Aktualizováno: 23.02.2018 12:33
 
Teplota vzduchu: -4°C
Chlad větru: -9°C
Vítr: S 17 km/h
Rosný bod: -6°C
Vlhkost vzduchu: 86%
Tlak vzduchu: 1020 hPa
Stav počasí: Mírnější sněhová zrna, Opar
Oblačnost: zataženo
Viditelnost: 2 km
Detaily oblačnosti: zataženo 427 m
2018/02/23 11:33 LKMT 231133Z 01009KT 1800 -SG BR OVC014 M04/M06 Q1020 R04/41//95 RMK REG QNH 1016
 
LKPD - Pardubice, Česká republika
Aktualizováno: 23.02.2018 12:00
 
Teplota vzduchu: -1°C
Chlad větru: -4°C
Vítr: SSV 9 km/h
Rosný bod: -9°C
Vlhkost vzduchu: 55%
Tlak vzduchu: 1021 hPa
Stav počasí: Jasno
Oblačnost: jasná obloha
Viditelnost: více než 10 km
2018/02/23 11:00 LKPD 231100Z 03005KT 340V080 CAVOK M01/M09 Q1021 NOSIG
LKKB - Praha Kbely, Česká republika
Aktualizováno: 23.02.2018 12:00
 
Teplota vzduchu: -2°C
Chlad větru: -7°C
Vítr: SV 15 km/h
Rosný bod: -10°C
Vlhkost vzduchu: 55%
Tlak vzduchu: 1021 hPa
Oblačnost: oblačno
Viditelnost: 10 km
Detaily oblačnosti: oblačno 671 m
2018/02/23 11:00 LKKB 231100Z 05008KT 020V090 9999 SCT022 M02/M10 Q1021 NOSIG
 
LKCV - Čáslav, Česká republika
Aktualizováno: 23.02.2018 12:00
 
Teplota vzduchu: -2°C
Chlad větru: -6°C
Vítr: SV 9 km/h
Rosný bod: -9°C
Vlhkost vzduchu: 59%
Tlak vzduchu: 1021 hPa
Oblačnost: skoro jasno
Viditelnost: 10 km
Detaily oblačnosti: skoro jasno 1128 m
2018/02/23 11:00 LKCV 231100Z 04005KT 010V070 9999 FEW037 M02/M09 Q1021 NOSIG
LKNA - Náměšť n. Osl., Česká republika
Aktualizováno: 23.02.2018 12:00
 
Teplota vzduchu: -3°C
Chlad větru: -8°C
Vítr: VSV 17 km/h
Rosný bod: -8°C
Vlhkost vzduchu: 69%
Tlak vzduchu: 1017 hPa
Oblačnost: skoro zataženo
Viditelnost: 10 km
Detaily oblačnosti: skoro zataženo 640 m
2018/02/23 11:00 LKNA 231100Z 07009KT 9999 BKN021 M03/M08 Q1017 NOSIG
 
LKLN - Plzeň Líně, Česká republika
Aktualizováno: 23.02.2018 12:00
 
Teplota vzduchu: -2°C
Chlad větru: -8°C
Vítr: VSV 19 km/h
Rosný bod: -8°C
Vlhkost vzduchu: 64%
Tlak vzduchu: 1020 hPa
Oblačnost: skoro zataženo
Viditelnost: 10 km
Detaily oblačnosti: skoro zataženo 762 m
2018/02/23 11:00 LKLN 231100Z AUTO 07010KT 010V100 9999 BKN025 M02/M08 Q1020
LKVO - Vodochody, Česká republika
Aktualizováno: 23.02.2018 12:00
 
Teplota vzduchu: 0°C
Chlad větru: -4°C
Vítr: V 17 km/h
Rosný bod: -10°C
Vlhkost vzduchu: 47%
Tlak vzduchu: 1021 hPa
Oblačnost: oblačno
Viditelnost: 10 km
Detaily oblačnosti: oblačno 975 m
2018/02/23 11:00 LKVO 231100Z 10009KT 360V140 9999 SCT032 M00/M10 Q1021

Metar display script od Saratoga-Weather.org
upravil a přeložil Miloš Jiřík